createdAt,value
2018-11-03T00:01:43.342Z,102416.74
2018-11-03T00:04:12.832Z,102416.74
2018-11-03T00:06:43.118Z,102418.50
2018-11-03T00:09:12.624Z,102421.08
2018-11-03T00:11:42.503Z,102423.27
2018-11-03T00:14:12.147Z,102409.75
2018-11-03T00:16:41.642Z,102407.98
2018-11-03T00:19:11.213Z,102410.60
2018-11-03T00:21:40.711Z,102407.56
2018-11-03T00:24:10.897Z,102413.21
2018-11-03T00:26:43.360Z,102411.06
2018-11-03T00:29:13.644Z,102417.60
2018-11-03T00:31:43.123Z,102410.17
2018-11-03T00:34:13.438Z,102413.20
2018-11-03T00:36:43.056Z,102408.85
2018-11-03T00:39:13.237Z,102411.47
2018-11-03T00:41:43.988Z,102404.45
2018-11-03T00:44:13.656Z,102410.98
2018-11-03T00:46:43.160Z,102408.79
2018-11-03T00:49:13.307Z,102412.70
2018-11-03T00:51:42.642Z,102411.39
2018-11-03T00:54:12.521Z,102407.92
2018-11-03T00:56:42.186Z,102403.13
2018-11-03T00:59:11.958Z,102404.01
2018-11-03T01:02:00.032Z,102397.89
2018-11-03T01:04:32.905Z,102400.08
2018-11-03T01:07:04.038Z,102405.73
2018-11-03T01:09:33.651Z,102412.70
2018-11-03T01:12:04.042Z,102407.05
2018-11-03T01:14:33.687Z,102410.96
2018-11-03T01:17:03.566Z,102419.23
2018-11-03T01:19:33.101Z,102421.41
2018-11-03T01:22:02.568Z,102426.22
2018-11-03T01:24:32.155Z,102415.76
2018-11-03T01:27:01.763Z,102414.44
2018-11-03T01:29:31.601Z,102413.13
2018-11-03T01:32:01.248Z,102407.00
2018-11-03T01:34:30.826Z,102406.52
2018-11-03T01:37:00.658Z,102404.36
2018-11-03T01:39:30.201Z,102409.13
2018-11-03T01:41:59.662Z,102408.27
2018-11-03T01:44:46.093Z,102405.17
2018-11-03T01:47:24.489Z,102409.50
2018-11-03T01:49:54.083Z,102407.75
2018-11-03T01:52:25.499Z,102411.69
2018-11-03T01:54:55.221Z,102415.16
2018-11-03T01:57:24.726Z,102410.36
2018-11-03T01:59:54.329Z,102402.53
2018-11-03T02:02:24.814Z,102398.18
2018-11-03T02:04:54.127Z,102395.98
2018-11-03T02:07:24.699Z,102406.86
2018-11-03T02:09:54.303Z,102406.02
2018-11-03T02:12:23.856Z,102407.75
2018-11-03T02:14:53.468Z,102405.14
2018-11-03T02:17:23.084Z,102410.80
2018-11-03T02:19:52.579Z,102409.94
2018-11-03T02:22:22.768Z,102412.50
2018-11-03T02:24:52.888Z,102412.07
2018-11-03T02:27:23.031Z,102415.98
2018-11-03T02:29:52.733Z,102425.11
2018-11-03T02:32:22.244Z,102425.10
2018-11-03T02:34:52.129Z,102436.44
2018-11-03T02:37:21.532Z,102427.70
2018-11-03T02:39:51.186Z,102435.97
2018-11-03T02:42:20.640Z,102429.45
2018-11-03T02:44:50.095Z,102432.52
2018-11-03T02:47:19.592Z,102437.27
2018-11-03T02:49:49.061Z,102439.87
2018-11-03T02:52:18.355Z,102440.73
2018-11-03T02:54:47.762Z,102433.30
2018-11-03T02:57:17.216Z,102428.09
2018-11-03T02:59:46.715Z,102435.92
2018-11-03T03:02:17.153Z,102436.34
2018-11-03T03:04:46.658Z,102432.41
2018-11-03T03:07:16.678Z,102424.55
2018-11-03T03:09:46.108Z,102420.20
2018-11-03T03:12:15.972Z,102425.02
2018-11-03T03:14:45.350Z,102417.19
2018-11-03T03:17:15.007Z,102419.80
2018-11-03T03:19:44.508Z,102425.03
2018-11-03T03:22:14.016Z,102419.80
2018-11-03T03:24:43.367Z,102419.80
2018-11-03T03:27:12.687Z,102423.27
2018-11-03T03:29:42.355Z,102424.16
2018-11-03T03:32:11.827Z,102421.10
2018-11-03T03:34:41.241Z,102421.52
2018-11-03T03:37:10.623Z,102421.51
2018-11-03T03:39:40.061Z,102425.00
2018-11-03T03:42:09.431Z,102425.84
2018-11-03T03:44:39.051Z,102418.91
2018-11-03T03:47:08.443Z,102423.64
2018-11-03T03:49:37.924Z,102422.78
2018-11-03T03:52:07.264Z,102422.78
2018-11-03T03:54:36.705Z,102430.13
2018-11-03T03:57:06.745Z,102424.91
2018-11-03T03:59:36.187Z,102434.91
2018-11-03T04:02:05.811Z,102441.84
2018-11-03T04:04:35.237Z,102441.80
2018-11-03T04:07:05.866Z,102433.55
2018-11-03T04:09:35.280Z,102449.22
2018-11-03T04:12:04.750Z,102445.28
2018-11-03T04:14:34.273Z,102449.59
2018-11-03T04:17:04.283Z,102449.16
2018-11-03T04:19:34.103Z,102440.00
2018-11-03T04:22:04.137Z,102440.02
2018-11-03T04:24:33.665Z,102450.87
2018-11-03T04:27:03.985Z,102433.42
2018-11-03T04:29:33.502Z,102439.94
2018-11-03T04:32:03.426Z,102440.39
2018-11-03T04:34:33.774Z,102432.55
2018-11-03T04:37:03.625Z,102433.85
2018-11-03T04:39:33.244Z,102432.08
2018-11-03T04:42:04.350Z,102430.78
2018-11-03T04:44:34.218Z,102425.53
2018-11-03T04:47:03.828Z,102430.30
2018-11-03T04:49:33.389Z,102426.37
2018-11-03T04:52:02.879Z,102421.12
2018-11-03T04:54:32.194Z,102421.95
2018-11-03T04:57:01.752Z,102417.17
2018-11-03T04:59:31.255Z,102425.82
2018-11-03T05:02:00.692Z,102424.07
2018-11-03T05:04:30.229Z,102426.70
2018-11-03T05:06:59.559Z,102428.41
2018-11-03T05:09:29.041Z,102430.17
2018-11-03T05:11:58.692Z,102431.89
2018-11-03T05:14:28.105Z,102427.96
2018-11-03T05:16:57.577Z,102427.96
2018-11-03T05:19:26.870Z,102429.66
2018-11-03T05:21:56.204Z,102435.75
2018-11-03T05:24:25.606Z,102433.57
2018-11-03T05:26:55.002Z,102436.18
2018-11-03T05:29:25.557Z,102435.77
2018-11-03T05:31:55.218Z,102437.50
2018-11-03T05:34:24.958Z,102438.40
2018-11-03T05:36:54.413Z,102441.42
2018-11-03T05:39:26.240Z,102433.59
2018-11-03T05:41:55.566Z,102440.55
2018-11-03T05:44:25.180Z,102440.13
2018-11-03T05:46:54.476Z,102440.11
2018-11-03T05:49:24.681Z,102447.94
2018-11-03T05:51:53.874Z,102452.70
2018-11-03T05:54:23.314Z,102455.31
2018-11-03T05:56:52.618Z,102457.45
2018-11-03T05:59:22.943Z,102456.59
2018-11-03T06:01:52.460Z,102466.14
2018-11-03T06:04:21.850Z,102463.09
2018-11-03T06:06:51.371Z,102462.62
2018-11-03T06:09:28.561Z,102463.48
2018-11-03T06:11:59.080Z,102467.00
2018-11-03T06:14:32.502Z,102477.84
2018-11-03T06:17:03.840Z,102474.77
2018-11-03T06:19:41.723Z,102473.91
2018-11-03T06:22:20.349Z,102476.95
2018-11-03T06:24:54.578Z,102479.12
2018-11-03T06:27:33.182Z,102481.72
2018-11-03T06:30:13.964Z,102481.72
2018-11-03T06:33:01.135Z,102486.06
2018-11-03T06:35:42.350Z,102490.41
2018-11-03T06:38:23.237Z,102485.67
2018-11-03T06:41:02.448Z,102491.80
2018-11-03T06:43:44.217Z,102495.72
2018-11-03T06:46:20.591Z,102489.23
2018-11-03T06:48:56.706Z,102495.80
2018-11-03T06:51:42.647Z,102496.72
2018-11-03T06:54:20.007Z,102502.39
2018-11-03T06:57:00.263Z,102505.92
2018-11-03T06:59:31.480Z,102502.86
2018-11-03T07:02:02.167Z,102504.66
2018-11-03T07:04:32.676Z,102507.72
2018-11-03T07:07:03.295Z,102509.53
2018-11-03T07:09:35.133Z,102503.88
2018-11-03T07:12:05.670Z,102508.68
2018-11-03T07:14:36.022Z,102506.09
2018-11-03T07:17:15.811Z,102504.38
2018-11-03T07:19:52.283Z,102500.49
2018-11-03T07:22:31.452Z,102502.25
2018-11-03T07:25:11.889Z,102500.11
2018-11-03T07:27:46.118Z,102497.95
2018-11-03T07:30:16.414Z,102494.94
2018-11-03T07:32:46.575Z,102491.02
2018-11-03T07:35:16.187Z,102497.14
2018-11-03T07:37:46.456Z,102494.96
2018-11-03T07:40:16.250Z,102490.66
2018-11-03T07:42:46.525Z,102491.11
2018-11-03T07:45:17.006Z,102496.38
2018-11-03T07:47:47.081Z,102496.42
2018-11-03T07:50:16.817Z,102482.95
2018-11-03T07:52:46.501Z,102487.37
2018-11-03T07:55:16.647Z,102485.20
2018-11-03T07:57:46.735Z,102481.30
2018-11-03T08:00:16.202Z,102482.20
2018-11-03T08:02:45.949Z,102476.58
2018-11-03T08:05:16.487Z,102483.53
2018-11-03T08:07:46.272Z,102480.94
2018-11-03T08:10:15.860Z,102478.77
2018-11-03T08:12:45.298Z,102480.96
2018-11-03T08:15:14.880Z,102478.80
2018-11-03T08:17:44.373Z,102476.17
2018-11-03T08:20:13.890Z,102480.11
2018-11-03T08:22:43.370Z,102474.05
2018-11-03T08:25:12.978Z,102466.20
2018-11-03T08:27:43.826Z,102462.30
2018-11-03T08:30:14.566Z,102465.34
2018-11-03T08:32:45.671Z,102463.61
2018-11-03T08:35:16.133Z,102464.50
2018-11-03T08:37:46.546Z,102464.06
2018-11-03T08:40:16.683Z,102463.64
2018-11-03T08:42:46.230Z,102459.74
2018-11-03T08:45:16.141Z,102458.91
2018-11-03T08:47:45.842Z,102452.38
2018-11-03T08:50:15.346Z,102454.55
2018-11-03T08:52:46.083Z,102458.06
2018-11-03T08:55:15.766Z,102462.47
2018-11-03T08:57:45.422Z,102454.17
2018-11-03T09:00:15.888Z,102454.24
2018-11-03T09:02:48.600Z,102460.80
2018-11-03T09:05:18.628Z,102456.92
2018-11-03T09:07:49.463Z,102463.05
2018-11-03T09:10:19.377Z,102459.55
2018-11-03T09:12:48.983Z,102449.97
2018-11-03T09:15:19.077Z,102454.32
2018-11-03T09:17:49.117Z,102457.41
2018-11-03T09:20:25.700Z,102461.77
2018-11-03T09:22:55.821Z,102452.17
2018-11-03T09:25:25.765Z,102450.02
2018-11-03T09:27:55.522Z,102452.63
2018-11-03T09:30:24.860Z,102447.39
2018-11-03T09:32:54.328Z,102438.66
2018-11-03T09:35:23.849Z,102441.26
2018-11-03T09:37:53.442Z,102440.39
2018-11-03T09:40:23.131Z,102448.22
2018-11-03T09:42:52.623Z,102449.94
2018-11-03T09:45:22.060Z,102451.69
2018-11-03T09:47:52.283Z,102449.47
2018-11-03T09:50:22.556Z,102449.02
2018-11-03T09:52:52.063Z,102441.11
2018-11-03T09:55:21.501Z,102445.89
2018-11-03T09:57:51.826Z,102443.24
2018-11-03T10:00:22.126Z,102447.20
2018-11-03T10:02:51.927Z,102445.44
2018-11-03T10:05:21.618Z,102443.69
2018-11-03T10:07:51.927Z,102439.73
2018-11-03T10:10:21.364Z,102430.50
2018-11-03T10:12:51.165Z,102430.04
2018-11-03T10:15:21.702Z,102425.61
2018-11-03T10:17:51.917Z,102427.72
2018-11-03T10:20:21.934Z,102429.47
2018-11-03T10:22:51.571Z,102412.83
2018-11-03T10:25:21.633Z,102418.91
2018-11-03T10:27:51.234Z,102421.52
2018-11-03T10:30:21.859Z,102416.70
2018-11-03T10:32:51.459Z,102415.38
2018-11-03T10:35:22.947Z,102401.84
2018-11-03T10:37:52.545Z,102404.03
2018-11-03T10:40:22.289Z,102403.55
2018-11-03T10:42:51.742Z,102397.33
2018-11-03T10:45:21.344Z,102404.72
2018-11-03T10:47:52.074Z,102403.30
2018-11-03T10:50:21.580Z,102392.70
2018-11-03T10:52:51.799Z,102394.45
2018-11-03T10:55:21.804Z,102390.42
2018-11-03T10:57:51.633Z,102386.80
2018-11-03T11:01:29.339Z,102391.85
2018-11-03T11:04:04.071Z,102380.42
2018-11-03T11:06:39.323Z,102380.42
2018-11-03T11:09:14.646Z,102371.64
2018-11-03T11:11:49.364Z,102372.88
2018-11-03T11:14:19.647Z,102374.02
2018-11-03T11:16:50.115Z,102369.53
2018-11-03T11:19:19.953Z,102366.44
2018-11-03T11:21:50.581Z,102361.05
2018-11-03T11:24:20.409Z,102370.38
2018-11-03T11:26:49.676Z,102371.24
2018-11-03T11:29:19.275Z,102362.73
2018-11-03T11:31:48.992Z,102362.23
2018-11-03T11:34:19.239Z,102360.09
2018-11-03T11:36:49.331Z,102359.23
2018-11-03T11:39:18.818Z,102352.19
2018-11-03T11:41:48.749Z,102352.45
2018-11-03T11:44:18.545Z,102342.70
2018-11-03T11:46:48.275Z,102346.14
2018-11-03T11:49:18.284Z,102346.32
2018-11-03T11:51:47.810Z,102340.74
2018-11-03T11:54:17.735Z,102337.48
2018-11-03T11:56:47.212Z,102344.53
2018-11-03T11:59:16.956Z,102342.41
2018-11-03T12:01:46.433Z,102342.37
2018-11-03T12:04:15.876Z,102342.07
2018-11-03T12:06:46.334Z,102335.23
2018-11-03T12:09:16.011Z,102334.02
2018-11-03T12:11:45.792Z,102325.00
2018-11-03T12:14:15.387Z,102318.95
2018-11-03T12:16:44.805Z,102318.37
2018-11-03T12:19:14.885Z,102315.89
2018-11-03T12:21:44.791Z,102309.02
2018-11-03T12:24:14.186Z,102314.94
2018-11-03T12:26:43.553Z,102309.38
2018-11-03T12:29:12.971Z,102309.66
2018-11-03T12:31:42.874Z,102301.07
2018-11-03T12:34:12.356Z,102302.00
2018-11-03T12:36:42.178Z,102301.36
2018-11-03T12:39:11.498Z,102301.52
2018-11-03T12:41:41.409Z,102300.73
2018-11-03T12:44:11.424Z,102291.53
2018-11-03T12:46:43.362Z,102290.41
2018-11-03T12:49:14.026Z,102286.24
2018-11-03T12:51:43.446Z,102284.41
2018-11-03T12:54:13.226Z,102277.35
2018-11-03T12:56:42.559Z,102270.84
2018-11-03T12:59:12.270Z,102273.72
2018-11-03T13:01:41.777Z,102263.05
2018-11-03T13:04:12.453Z,102263.21
2018-11-03T13:06:42.183Z,102259.20
2018-11-03T13:09:12.295Z,102265.22
2018-11-03T13:11:42.072Z,102259.28
2018-11-03T13:14:12.939Z,102249.91
2018-11-03T13:16:43.580Z,102248.69
2018-11-03T13:19:13.145Z,102245.23
2018-11-03T13:21:42.720Z,102243.25
2018-11-03T13:24:12.953Z,102240.53
2018-11-03T13:26:42.374Z,102234.28
2018-11-03T13:29:12.202Z,102235.12
2018-11-03T13:31:41.602Z,102226.36
2018-11-03T13:34:10.951Z,102224.67
2018-11-03T13:36:40.437Z,102210.58
2018-11-03T13:39:10.976Z,102215.17
2018-11-03T13:41:40.469Z,102211.51
2018-11-03T13:44:10.106Z,102204.75
2018-11-03T13:46:39.728Z,102210.67
2018-11-03T13:49:09.396Z,102208.23
2018-11-03T13:51:39.099Z,102208.02
2018-11-03T13:54:08.848Z,102199.15
2018-11-03T13:56:38.508Z,102193.67
2018-11-03T13:59:08.212Z,102191.49
2018-11-03T14:01:39.241Z,102193.05
2018-11-03T14:04:08.879Z,102180.53
2018-11-03T14:06:38.784Z,102181.13
2018-11-03T14:09:10.548Z,102178.69
2018-11-03T14:11:40.964Z,102173.13
2018-11-03T14:14:11.463Z,102175.45
2018-11-03T14:16:40.936Z,102175.11
2018-11-03T14:19:11.084Z,102168.67
2018-11-03T14:21:41.404Z,102167.98
2018-11-03T14:24:10.905Z,102157.50
2018-11-03T14:26:40.701Z,102165.48
2018-11-03T14:29:10.802Z,102157.24
2018-11-03T14:31:41.221Z,102154.72
2018-11-03T14:34:11.835Z,102152.16
2018-11-03T14:36:42.316Z,102145.23
2018-11-03T14:39:13.914Z,102143.94
2018-11-03T14:41:43.537Z,102139.14
2018-11-03T14:44:13.291Z,102130.42
2018-11-03T14:46:43.152Z,102133.12
2018-11-03T14:49:12.773Z,102131.45
2018-11-03T14:51:43.361Z,102125.36
2018-11-03T14:54:14.619Z,102128.07
2018-11-03T14:56:44.270Z,102118.51
2018-11-03T14:59:15.470Z,102114.59
2018-11-03T15:01:46.076Z,102106.34
2018-11-03T15:04:18.178Z,102110.44
2018-11-03T15:06:48.292Z,102104.33
2018-11-03T15:09:18.890Z,102100.95
2018-11-03T15:11:49.661Z,102100.98
2018-11-03T15:14:19.428Z,102095.78
2018-11-03T15:16:49.720Z,102095.48
2018-11-03T15:19:19.676Z,102094.27
2018-11-03T15:21:51.612Z,102092.47
2018-11-03T15:24:21.347Z,102086.70
2018-11-03T15:26:51.774Z,102082.00
2018-11-03T15:29:28.167Z,102079.91
2018-11-03T15:31:59.667Z,102083.52
2018-11-03T15:34:31.961Z,102076.56
2018-11-03T15:37:01.712Z,102066.53
2018-11-03T15:39:31.461Z,102063.55
2018-11-03T15:42:01.890Z,102065.41
2018-11-03T15:44:32.625Z,102054.56
2018-11-03T15:47:04.623Z,102056.39
2018-11-03T15:49:39.948Z,102053.25
2018-11-03T15:52:13.262Z,102047.30
2018-11-03T15:54:44.477Z,102048.30
2018-11-03T15:57:13.886Z,102048.42
2018-11-03T15:59:43.435Z,102047.70
2018-11-03T16:02:12.970Z,102048.23
2018-11-03T16:04:42.514Z,102046.58
2018-11-03T16:07:11.909Z,102049.73
2018-11-03T16:09:41.575Z,102040.23
2018-11-03T16:12:11.584Z,102041.61
2018-11-03T16:14:41.270Z,102041.17
2018-11-03T16:17:10.770Z,102039.51
2018-11-03T16:19:41.774Z,102033.86
2018-11-03T16:22:11.242Z,102040.53
2018-11-03T16:24:43.008Z,102039.73
2018-11-03T16:27:13.720Z,102035.88
2018-11-03T16:29:43.393Z,102039.91
2018-11-03T16:32:13.409Z,102037.35
2018-11-03T16:34:44.104Z,102036.56
2018-11-03T16:37:13.688Z,102037.93
2018-11-03T16:39:45.318Z,102044.14
2018-11-03T16:42:14.769Z,102036.31
2018-11-03T16:44:44.385Z,102043.33
2018-11-03T16:47:13.936Z,102036.83
2018-11-03T16:49:49.886Z,102034.66
2018-11-03T16:52:19.445Z,102036.11
2018-11-03T16:54:48.872Z,102025.67
2018-11-03T16:57:18.502Z,102024.38
2018-11-03T16:59:47.866Z,102016.52
2018-11-03T17:02:17.976Z,102013.53
2018-11-03T17:04:47.935Z,102013.97
2018-11-03T17:07:17.656Z,102009.62
2018-11-03T17:09:47.509Z,102008.73
2018-11-03T17:12:17.009Z,102005.70
2018-11-03T17:14:46.589Z,102004.84
2018-11-03T17:17:16.092Z,102006.63
2018-11-03T17:19:45.808Z,102004.90
2018-11-03T17:22:15.503Z,101999.74
2018-11-03T17:24:44.823Z,102007.16
2018-11-03T17:27:14.281Z,102002.19
2018-11-03T17:29:43.810Z,102014.72
2018-11-03T17:32:13.320Z,102009.44
2018-11-03T17:34:42.724Z,102008.63
2018-11-03T17:37:12.131Z,102006.57
2018-11-03T17:39:41.759Z,102003.64
2018-11-03T17:42:11.609Z,102006.29
2018-11-03T17:44:40.947Z,102004.60
2018-11-03T17:47:10.636Z,101999.06
2018-11-03T17:49:40.771Z,101995.70
2018-11-03T17:52:10.490Z,101997.97
2018-11-03T17:54:40.403Z,101998.89
2018-11-03T17:57:10.132Z,101998.89
2018-11-03T17:59:39.830Z,101996.66
2018-11-03T18:02:09.308Z,101993.20
2018-11-03T18:04:38.966Z,101986.66
2018-11-03T18:07:08.404Z,101974.47
2018-11-03T18:09:37.971Z,101975.92
2018-11-03T18:12:07.544Z,101976.03
2018-11-03T18:14:37.001Z,101974.81
2018-11-03T18:17:09.714Z,101970.10
2018-11-03T18:19:40.682Z,101970.64
2018-11-03T18:22:10.517Z,101968.47
2018-11-03T18:24:40.123Z,101964.19
2018-11-03T18:27:09.556Z,101953.75
2018-11-03T18:29:39.161Z,101959.91
2018-11-03T18:32:09.200Z,101954.70
2018-11-03T18:34:38.660Z,101949.47
2018-11-03T18:37:08.732Z,101955.64
2018-11-03T18:39:38.369Z,101952.56
2018-11-03T18:42:07.816Z,101954.80
2018-11-03T18:44:37.344Z,101955.73
2018-11-03T18:47:06.881Z,101957.89
2018-11-03T18:49:37.034Z,101954.45
2018-11-03T18:52:06.474Z,101946.66
2018-11-03T18:54:36.003Z,101946.30
2018-11-03T18:57:05.562Z,101948.55
2018-11-03T18:59:35.808Z,101953.44
2018-11-03T19:02:05.413Z,101944.27
2018-11-03T19:04:35.985Z,101943.88
2018-11-03T19:07:06.082Z,101938.22
2018-11-03T19:09:35.420Z,101932.60
2018-11-03T19:12:04.810Z,101939.60
2018-11-03T19:14:35.191Z,101936.60
2018-11-03T19:17:04.971Z,101929.25
2018-11-03T19:19:34.602Z,101932.34
2018-11-03T19:22:04.239Z,101934.56
2018-11-03T19:24:34.444Z,101925.41
2018-11-03T19:27:04.297Z,101928.10
2018-11-03T19:29:34.555Z,101923.34
2018-11-03T19:32:04.515Z,101926.83
2018-11-03T19:34:34.304Z,101926.83
2018-11-03T19:37:03.977Z,101923.36
2018-11-03T19:39:33.892Z,101918.95
2018-11-03T19:42:03.642Z,101916.83
2018-11-03T19:44:33.436Z,101911.22
2018-11-03T19:47:03.022Z,101916.47
2018-11-03T19:49:33.422Z,101913.88
2018-11-03T19:52:03.252Z,101909.95
2018-11-03T19:54:32.748Z,101913.47
2018-11-03T19:57:02.101Z,101912.13
2018-11-03T19:59:31.489Z,101912.16
2018-11-03T20:02:00.876Z,101910.39
2018-11-03T20:04:30.337Z,101906.56
2018-11-03T20:06:59.866Z,101907.89
2018-11-03T20:09:30.180Z,101899.65
2018-11-03T20:12:00.116Z,101901.88
2018-11-03T20:14:30.585Z,101905.41
2018-11-03T20:17:00.824Z,101894.48
2018-11-03T20:19:30.332Z,101894.50
2018-11-03T20:21:59.735Z,101895.38
2018-11-03T20:24:29.337Z,101888.86
2018-11-03T20:26:58.810Z,101878.39
2018-11-03T20:29:28.372Z,101872.29
2018-11-03T20:31:57.893Z,101881.92
2018-11-03T20:34:27.291Z,101877.17
2018-11-03T20:36:56.859Z,101868.47
2018-11-03T20:39:26.503Z,101871.95
2018-11-03T20:41:56.403Z,101868.05
2018-11-03T20:44:25.893Z,101867.63
2018-11-03T20:46:56.160Z,101862.42
2018-11-03T20:49:26.434Z,101864.14
2018-11-03T20:51:56.853Z,101854.62
2018-11-03T20:54:26.334Z,101856.37
2018-11-03T20:56:55.838Z,101855.52
2018-11-03T20:59:26.328Z,101850.30
2018-11-03T21:01:55.827Z,101849.88
2018-11-03T21:04:25.298Z,101856.84
2018-11-03T21:06:55.598Z,101850.77
2018-11-03T21:09:25.263Z,101853.80
2018-11-03T21:11:54.744Z,101848.58
2018-11-03T21:14:24.334Z,101846.41
2018-11-03T21:16:53.852Z,101845.12
2018-11-03T21:19:24.102Z,101839.91
2018-11-03T21:21:53.619Z,101842.52
2018-11-03T21:24:22.989Z,101836.41
2018-11-03T21:26:53.101Z,101835.98
2018-11-03T21:29:22.604Z,101825.98
2018-11-03T21:31:52.263Z,101826.86
2018-11-03T21:34:22.576Z,101823.83
2018-11-03T21:36:52.333Z,101815.99
2018-11-03T21:39:22.311Z,101810.30
2018-11-03T21:41:51.676Z,101808.13
2018-11-03T21:44:21.015Z,101806.85
2018-11-03T21:46:51.131Z,101811.61
2018-11-03T21:49:20.919Z,101806.03
2018-11-03T21:51:50.251Z,101805.56
2018-11-03T21:54:19.686Z,101808.20
2018-11-03T21:56:49.228Z,101811.70
2018-11-03T21:59:18.844Z,101791.69
2018-11-03T22:01:48.250Z,101793.44
2018-11-03T22:04:17.933Z,101784.31
2018-11-03T22:06:48.016Z,101786.94
2018-11-03T22:09:17.342Z,101786.50
2018-11-03T22:11:46.932Z,101781.73
2018-11-03T22:14:16.221Z,101780.42
2018-11-03T22:16:45.646Z,101776.52
2018-11-03T22:19:15.099Z,101776.05
2018-11-03T22:21:44.729Z,101769.98
2018-11-03T22:24:14.272Z,101766.50
2018-11-03T22:26:43.611Z,101761.28
2018-11-03T22:29:13.237Z,101754.75
2018-11-03T22:31:42.759Z,101758.67
2018-11-03T22:34:12.129Z,101751.73
2018-11-03T22:36:41.767Z,101742.98
2018-11-03T22:39:11.226Z,101745.20
2018-11-03T22:41:40.571Z,101741.25
2018-11-03T22:44:10.657Z,101739.11
2018-11-03T22:46:40.244Z,101736.05
2018-11-03T22:49:09.603Z,101727.33
2018-11-03T22:51:40.382Z,101721.69
2018-11-03T22:54:10.119Z,101724.32
2018-11-03T22:56:42.354Z,101718.67
2018-11-03T22:59:11.597Z,101709.11
2018-11-03T23:01:40.989Z,101706.91
2018-11-03T23:04:10.463Z,101700.80
2018-11-03T23:06:40.436Z,101688.22
2018-11-03T23:09:09.742Z,101693.02
2018-11-03T23:11:39.163Z,101687.37
2018-11-03T23:14:08.736Z,101684.31
2018-11-03T23:16:38.885Z,101690.44
2018-11-03T23:19:09.689Z,101683.92
2018-11-03T23:21:41.741Z,101679.59
2018-11-03T23:24:12.126Z,101673.91
2018-11-03T23:26:43.829Z,101676.54
2018-11-03T23:29:14.144Z,101669.61
2018-11-03T23:31:44.125Z,101666.99
2018-11-03T23:34:13.800Z,101662.62
2018-11-03T23:36:43.276Z,101650.89
2018-11-03T23:39:12.785Z,101657.00
2018-11-03T23:41:42.243Z,101649.57
2018-11-03T23:44:12.196Z,101641.76
2018-11-03T23:46:41.659Z,101636.51
2018-11-03T23:49:11.761Z,101630.88
2018-11-03T23:51:42.220Z,101641.72
2018-11-03T23:54:12.054Z,101636.94
2018-11-03T23:56:44.500Z,101630.44
2018-11-03T23:59:14.186Z,101633.91
